Time;durP1;ratioP1;P1;durP2;ratioP2;P2;SDS_P1;SDS_P2;PMS_P1;PMS_P2;Temp;Humidity;BMP_temperature;BMP_pressure;BME280_temperature;BME280_humidity;BME280_pressure;Samples;Min_cycle;Max_cycle;Signal;HPM_P1;HPM_P2
2021/04/30 00:02:08;;;;;;;13.53;7.30;;;;;;;;;;5050886;28;20461;-79
2021/04/30 00:04:33;;;;;;;13.20;7.47;;;;;;;;;;5050694;28;20067;-79
2021/04/30 00:06:58;;;;;;;16.17;7.93;;;;;;;;;;5048093;28;20404;-79
2021/04/30 00:09:24;;;;;;;15.47;7.00;;;;;;;;;;5052028;28;20021;-79
2021/04/30 00:11:49;;;;;;;14.57;6.90;;;;;;;;;;5051085;28;20036;-79
2021/04/30 00:14:16;;;;;;;18.50;7.37;;;;;;;;;;5037368;28;20056;-79
2021/04/30 00:16:41;;;;;;;16.10;7.10;;;;;;;;;;5052590;28;20027;-79
2021/04/30 00:19:07;;;;;;;17.47;7.97;;;;;;;;;;5055803;28;20013;-79
2021/04/30 00:21:32;;;;;;;16.40;7.63;;;;;;;;;;5054340;28;20016;-79
2021/04/30 00:23:59;;;;;;;13.77;7.43;;;;;;;;;;5055570;28;20021;-79
2021/04/30 00:26:24;;;;;;;15.77;6.87;;;;;;;;;;5055506;28;20099;-79
2021/04/30 00:28:49;;;;;;;14.30;7.30;;;;;;;;;;5055681;28;20103;-79
2021/04/30 00:31:17;;;;;;;13.53;7.33;;;;;;;;;;5055555;28;20013;-79
2021/04/30 00:33:42;;;;;;;16.00;7.40;;;;;;;;;;5053987;28;20124;-79
2021/04/30 00:36:07;;;;;;;14.73;7.37;;;;;;;;;;5054334;28;20104;-79
2021/04/30 00:38:32;;;;;;;14.77;7.57;;;;;;;;;;5055770;28;20017;-79
2021/04/30 00:40:57;;;;;;;13.33;6.83;;;;;;;;;;5055361;28;20514;-79
2021/04/30 00:43:23;;;;;;;22.13;8.10;;;;;;;;;;5055368;28;20036;-79
2021/04/30 00:45:52;;;;;;;15.23;7.53;;;;;;;;;;5053906;28;20013;-79
2021/04/30 00:48:17;;;;;;;13.47;7.13;;;;;;;;;;5055476;28;20158;-79
2021/04/30 00:50:43;;;;;;;17.83;7.40;;;;;;;;;;5055116;28;20101;-79
2021/04/30 00:53:08;;;;;;;14.23;7.20;;;;;;;;;;5055250;28;20070;-79
2021/04/30 00:55:33;;;;;;;14.27;7.07;;;;;;;;;;5055058;28;20017;-79
2021/04/30 00:57:59;;;;;;;13.83;7.73;;;;;;;;;;5055104;28;20029;-79
2021/04/30 01:00:26;;;;;;;14.87;7.70;;;;;;;;;;5055046;28;20017;-79
2021/04/30 01:02:51;;;;;;;16.50;7.20;;;;;;;;;;5055063;28;20104;-79
2021/04/30 01:05:17;;;;;;;15.43;7.80;;;;;;;;;;5055012;28;20055;-79
2021/04/30 01:07:43;;;;;;;19.80;8.53;;;;;;;;;;5053571;28;20451;-79
2021/04/30 01:10:08;;;;;;;13.80;7.43;;;;;;;;;;5053593;28;20024;-79
2021/04/30 01:12:34;;;;;;;15.33;7.57;;;;;;;;;;5054640;28;20029;-79
2021/04/30 01:14:59;;;;;;;18.40;8.37;;;;;;;;;;5053399;28;20055;-79
2021/04/30 01:17:24;;;;;;;17.43;8.43;;;;;;;;;;5053457;28;20079;-79
2021/04/30 01:19:50;;;;;;;19.27;8.63;;;;;;;;;;5053365;28;20111;-79
2021/04/30 01:22:30;;;;;;;21.13;8.27;;;;;;;;;;5054718;28;20021;-79
2021/04/30 01:24:55;;;;;;;17.30;8.93;;;;;;;;;;5054703;28;20108;-79
2021/04/30 01:27:20;;;;;;;16.50;9.20;;;;;;;;;;5054753;28;20390;-79
2021/04/30 01:29:45;;;;;;;20.43;8.70;;;;;;;;;;5053878;28;20050;-79
2021/04/30 01:32:11;;;;;;;14.30;8.60;;;;;;;;;;5054772;28;20028;-79
2021/04/30 01:34:37;;;;;;;14.27;8.10;;;;;;;;;;5052996;28;20021;-79
2021/04/30 01:37:02;;;;;;;14.07;7.20;;;;;;;;;;5053108;28;20025;-79
2021/04/30 01:39:27;;;;;;;16.97;8.47;;;;;;;;;;5054458;28;20025;-79
2021/04/30 01:41:53;;;;;;;15.93;8.43;;;;;;;;;;5054279;28;20021;-79
2021/04/30 01:44:18;;;;;;;21.80;8.23;;;;;;;;;;5054432;28;20380;-79
2021/04/30 01:46:43;;;;;;;18.00;8.27;;;;;;;;;;5054293;28;20123;-79
2021/04/30 01:49:09;;;;;;;17.00;8.10;;;;;;;;;;5054290;28;20024;-79
2021/04/30 01:51:35;;;;;;;19.60;8.47;;;;;;;;;;5054125;28;20032;-79
2021/04/30 01:54:01;;;;;;;15.33;8.20;;;;;;;;;;5054188;28;20021;-79
2021/04/30 01:56:26;;;;;;;15.23;8.23;;;;;;;;;;5054104;28;20036;-79
2021/04/30 01:58:51;;;;;;;16.93;8.03;;;;;;;;;;5052711;28;20013;-79
2021/04/30 02:01:18;;;;;;;18.60;8.90;;;;;;;;;;5054329;28;20009;-79
2021/04/30 02:03:43;;;;;;;17.83;8.33;;;;;;;;;;5053943;28;20084;-79
2021/04/30 02:06:08;;;;;;;21.57;8.93;;;;;;;;;;5054119;28;20013;-79
2021/04/30 02:08:33;;;;;;;20.53;9.20;;;;;;;;;;5052453;28;20021;-79
2021/04/30 02:10:59;;;;;;;14.73;8.40;;;;;;;;;;5052762;28;20306;-79
2021/04/30 02:13:24;;;;;;;16.67;8.70;;;;;;;;;;5053722;28;20021;-79
2021/04/30 02:15:50;;;;;;;18.83;8.63;;;;;;;;;;5053472;28;20407;-79
2021/04/30 02:18:15;;;;;;;21.17;8.37;;;;;;;;;;5053750;28;20469;-79
2021/04/30 02:20:41;;;;;;;24.10;9.03;;;;;;;;;;5053827;28;20041;-79
2021/04/30 02:23:06;;;;;;;17.90;8.20;;;;;;;;;;5053497;28;20039;-79
2021/04/30 02:25:31;;;;;;;20.30;9.23;;;;;;;;;;5052381;28;20060;-79
2021/04/30 02:27:57;;;;;;;16.13;7.87;;;;;;;;;;5052011;28;20031;-79
2021/04/30 02:30:23;;;;;;;17.60;8.67;;;;;;;;;;5052136;28;20075;-79
2021/04/30 02:32:49;;;;;;;14.73;8.07;;;;;;;;;;5051989;28;20427;-80
2021/04/30 02:35:17;;;;;;;20.37;8.87;;;;;;;;;;5052063;28;20020;-79
2021/04/30 02:37:43;;;;;;;17.60;8.20;;;;;;;;;;5053376;28;20019;-79
2021/04/30 02:40:10;;;;;;;20.60;8.30;;;;;;;;;;5052422;28;20523;-79
2021/04/30 02:42:35;;;;;;;17.53;8.90;;;;;;;;;;5051979;28;20052;-79
2021/04/30 02:45:01;;;;;;;13.17;8.13;;;;;;;;;;5053061;28;20045;-79
2021/04/30 02:47:30;;;;;;;13.73;8.37;;;;;;;;;;5051887;28;20035;-79
2021/04/30 02:49:56;;;;;;;19.17;8.50;;;;;;;;;;5053052;28;20075;-79
2021/04/30 02:52:21;;;;;;;17.23;8.73;;;;;;;;;;5052074;28;20021;-79
2021/04/30 02:54:46;;;;;;;15.70;8.40;;;;;;;;;;5051655;28;20021;-79
2021/04/30 02:57:12;;;;;;;18.67;8.93;;;;;;;;;;5052915;28;20017;-79
2021/04/30 02:59:38;;;;;;;17.80;9.73;;;;;;;;;;5052975;28;20536;-79
2021/04/30 03:02:03;;;;;;;18.07;9.10;;;;;;;;;;5051523;28;20049;-79
2021/04/30 03:04:28;;;;;;;16.60;8.37;;;;;;;;;;5051619;28;20021;-79
2021/04/30 03:06:53;;;;;;;18.03;9.30;;;;;;;;;;5051481;28;20473;-79
2021/04/30 03:09:19;;;;;;;21.00;8.67;;;;;;;;;;5051536;28;20464;-79
2021/04/30 03:11:44;;;;;;;25.00;11.23;;;;;;;;;;5051509;28;20499;-79
2021/04/30 03:14:09;;;;;;;16.23;9.50;;;;;;;;;;5052226;28;20487;-80
2021/04/30 03:16:35;;;;;;;22.10;8.63;;;;;;;;;;5052688;28;20407;-80
2021/04/30 03:19:00;;;;;;;17.10;9.60;;;;;;;;;;5051452;28;20021;-79
2021/04/30 03:21:25;;;;;;;15.70;9.20;;;;;;;;;;5052543;28;20013;-79
2021/04/30 03:23:51;;;;;;;20.50;9.10;;;;;;;;;;5051342;28;20032;-79
2021/04/30 03:26:17;;;;;;;19.17;9.10;;;;;;;;;;5051159;28;20369;-79
2021/04/30 03:28:42;;;;;;;12.80;8.80;;;;;;;;;;5052496;28;20181;-79
2021/04/30 03:31:07;;;;;;;19.53;9.70;;;;;;;;;;5051129;28;20027;-79
2021/04/30 03:33:32;;;;;;;24.43;9.90;;;;;;;;;;5052617;28;20100;-79
2021/04/30 03:35:57;;;;;;;27.60;10.20;;;;;;;;;;5051297;28;20029;-79
2021/04/30 03:38:22;;;;;;;22.23;9.90;;;;;;;;;;5052309;28;20013;-79
2021/04/30 03:40:48;;;;;;;19.97;9.50;;;;;;;;;;5051298;28;20044;-79
2021/04/30 03:43:13;;;;;;;17.20;8.93;;;;;;;;;;5052339;28;20013;-79
2021/04/30 03:45:38;;;;;;;17.17;9.80;;;;;;;;;;5051398;28;20495;-79
2021/04/30 03:48:04;;;;;;;24.00;9.80;;;;;;;;;;5050949;28;20033;-79
2021/04/30 03:50:29;;;;;;;17.87;10.00;;;;;;;;;;5052382;28;20460;-79
2021/04/30 03:52:54;;;;;;;16.80;10.03;;;;;;;;;;5053867;28;20021;-79
2021/04/30 03:55:19;;;;;;;22.80;10.20;;;;;;;;;;5054919;28;20115;-79
2021/04/30 03:57:44;;;;;;;22.67;10.20;;;;;;;;;;5055046;28;20154;-79
2021/04/30 04:00:10;;;;;;;21.93;10.23;;;;;;;;;;5056262;28;20024;-79
2021/04/30 04:02:35;;;;;;;19.03;9.77;;;;;;;;;;5056300;28;20043;-79
2021/04/30 04:05:00;;;;;;;20.57;9.90;;;;;;;;;;5054819;28;20017;-79
2021/04/30 04:07:25;;;;;;;22.97;10.10;;;;;;;;;;5088364;28;20083;-79
2021/04/30 04:09:51;;;;;;;22.73;10.53;;;;;;;;;;5056120;28;20021;-79
2021/04/30 04:12:16;;;;;;;16.83;10.20;;;;;;;;;;5054766;28;20461;-79
2021/04/30 04:14:42;;;;;;;19.67;9.67;;;;;;;;;;5055693;28;20025;-79
2021/04/30 04:17:08;;;;;;;17.53;10.40;;;;;;;;;;5054756;28;20376;-79
2021/04/30 04:19:33;;;;;;;27.70;11.00;;;;;;;;;;5055926;28;20013;-79
2021/04/30 04:21:58;;;;;;;19.80;10.30;;;;;;;;;;5055813;28;20009;-79
2021/04/30 04:24:23;;;;;;;28.40;10.17;;;;;;;;;;5055648;28;20021;-79
2021/04/30 04:26:48;;;;;;;24.60;10.80;;;;;;;;;;5055749;28;20538;-79
2021/04/30 04:29:14;;;;;;;15.50;9.63;;;;;;;;;;5054465;28;20020;-79
2021/04/30 04:31:39;;;;;;;22.07;10.40;;;;;;;;;;5070834;28;20028;-79
2021/04/30 04:34:04;;;;;;;17.87;10.60;;;;;;;;;;5054223;28;20030;-79
2021/04/30 04:36:29;;;;;;;34.37;16.23;;;;;;;;;;5055401;28;20524;-80
2021/04/30 04:38:54;;;;;;;27.80;13.80;;;;;;;;;;5054152;28;20483;-79
2021/04/30 04:41:20;;;;;;;42.67;18.93;;;;;;;;;;5054060;28;20500;-79
2021/04/30 04:43:45;;;;;;;35.60;18.50;;;;;;;;;;5055456;28;20021;-79
2021/04/30 04:46:10;;;;;;;37.03;18.13;;;;;;;;;;5054194;28;20091;-79
2021/04/30 04:48:35;;;;;;;34.07;16.57;;;;;;;;;;5055132;28;20029;-79
2021/04/30 04:51:01;;;;;;;26.07;14.03;;;;;;;;;;5055246;28;20346;-79
2021/04/30 04:53:26;;;;;;;27.47;12.67;;;;;;;;;;5053864;28;20024;-79
2021/04/30 04:55:51;;;;;;;29.30;12.10;;;;;;;;;;5055086;28;20017;-79
2021/04/30 04:58:16;;;;;;;20.77;13.00;;;;;;;;;;5053669;28;20056;-79
2021/04/30 05:00:41;;;;;;;24.23;12.67;;;;;;;;;;5055185;28;20058;-79
2021/04/30 05:03:07;;;;;;;21.03;11.50;;;;;;;;;;5053037;28;20464;-79
2021/04/30 05:05:32;;;;;;;25.60;13.10;;;;;;;;;;5054735;28;20017;-79
2021/04/30 05:07:57;;;;;;;30.00;12.03;;;;;;;;;;5053693;28;20035;-79
2021/04/30 05:10:22;;;;;;;27.00;12.60;;;;;;;;;;5054789;28;20210;-79
2021/04/30 05:12:47;;;;;;;24.40;14.30;;;;;;;;;;5055029;28;20021;-79
2021/04/30 05:15:14;;;;;;;27.43;13.43;;;;;;;;;;5053382;28;20067;-79
2021/04/30 05:17:39;;;;;;;27.90;14.53;;;;;;;;;;5053366;28;20460;-79
2021/04/30 05:20:04;;;;;;;33.47;15.73;;;;;;;;;;5054785;28;20031;-79
2021/04/30 05:22:29;;;;;;;28.57;13.23;;;;;;;;;;5054787;28;20015;-79
2021/04/30 05:24:55;;;;;;;25.57;14.50;;;;;;;;;;5054647;28;20032;-79
2021/04/30 05:27:20;;;;;;;27.23;14.13;;;;;;;;;;5054810;28;20029;-79
2021/04/30 05:29:45;;;;;;;28.50;15.00;;;;;;;;;;5054486;28;20074;-79
2021/04/30 05:32:11;;;;;;;25.53;14.10;;;;;;;;;;5053308;28;20028;-79
2021/04/30 05:34:37;;;;;;;26.73;14.07;;;;;;;;;;5054511;28;20464;-79
2021/04/30 05:37:02;;;;;;;30.07;13.73;;;;;;;;;;5053196;28;20017;-79
2021/04/30 05:39:27;;;;;;;30.07;14.03;;;;;;;;;;5054539;28;20445;-79
2021/04/30 05:41:53;;;;;;;31.97;13.37;;;;;;;;;;5052925;28;20017;-79
2021/04/30 05:44:18;;;;;;;25.53;13.07;;;;;;;;;;5052941;28;20021;-79
2021/04/30 05:46:43;;;;;;;23.37;13.63;;;;;;;;;;5052901;28;20483;-79
2021/04/30 05:49:08;;;;;;;23.37;13.70;;;;;;;;;;5053038;28;20025;-79
2021/04/30 05:51:33;;;;;;;32.20;14.00;;;;;;;;;;5052822;28;20392;-79
2021/04/30 05:53:59;;;;;;;24.23;14.13;;;;;;;;;;5054067;28;20461;-79
2021/04/30 05:56:24;;;;;;;27.90;14.40;;;;;;;;;;5054213;28;20487;-79
2021/04/30 05:58:49;;;;;;;30.50;15.53;;;;;;;;;;5052580;28;20403;-79
2021/04/30 06:01:16;;;;;;;24.40;14.13;;;;;;;;;;5053959;28;20021;-79
2021/04/30 06:03:41;;;;;;;35.83;16.07;;;;;;;;;;5052771;28;20678;-79
2021/04/30 06:06:06;;;;;;;25.70;14.93;;;;;;;;;;5052686;28;20024;-80
2021/04/30 06:08:31;;;;;;;30.07;14.43;;;;;;;;;;5052398;28;20108;-79
2021/04/30 06:10:57;;;;;;;26.87;14.50;;;;;;;;;;5053928;28;20017;-79
2021/04/30 06:13:22;;;;;;;28.90;14.77;;;;;;;;;;5052401;28;20043;-79
2021/04/30 06:15:47;;;;;;;33.57;15.33;;;;;;;;;;5052019;28;20039;-79
2021/04/30 06:18:12;;;;;;;25.83;14.90;;;;;;;;;;5053683;28;20059;-79
2021/04/30 06:20:37;;;;;;;30.07;14.60;;;;;;;;;;5052336;28;20071;-79
2021/04/30 06:23:02;;;;;;;26.03;15.03;;;;;;;;;;5053501;28;20041;-79
2021/04/30 06:25:28;;;;;;;27.77;13.73;;;;;;;;;;5053576;28;20506;-79
2021/04/30 06:27:53;;;;;;;30.73;14.97;;;;;;;;;;5052007;28;20024;-79
2021/04/30 06:30:18;;;;;;;33.23;15.20;;;;;;;;;;5053657;28;20020;-79
2021/04/30 06:32:44;;;;;;;25.83;14.73;;;;;;;;;;5052052;28;20052;-79
2021/04/30 06:35:10;;;;;;;30.70;14.70;;;;;;;;;;5047300;28;20013;-79
2021/04/30 06:37:35;;;;;;;34.77;16.70;;;;;;;;;;5077488;28;20032;-79
2021/04/30 06:40:01;;;;;;;25.90;15.33;;;;;;;;;;5053080;28;20441;-79
2021/04/30 06:42:26;;;;;;;28.73;15.53;;;;;;;;;;5053249;28;20138;-79
2021/04/30 06:44:53;;;;;;;30.07;15.07;;;;;;;;;;5053114;28;20040;-80
2021/04/30 06:47:18;;;;;;;32.80;16.43;;;;;;;;;;5051890;28;20050;-79
2021/04/30 06:49:43;;;;;;;26.07;15.13;;;;;;;;;;5051775;28;20112;-79
2021/04/30 06:52:08;;;;;;;29.40;15.17;;;;;;;;;;5052992;28;20391;-80
2021/04/30 06:54:33;;;;;;;32.80;15.63;;;;;;;;;;5051711;28;20025;-79
2021/04/30 06:56:58;;;;;;;29.03;15.73;;;;;;;;;;5052929;28;20024;-79
2021/04/30 06:59:24;;;;;;;31.03;15.33;;;;;;;;;;5053077;28;20094;-79
2021/04/30 07:01:49;;;;;;;31.37;16.27;;;;;;;;;;5052773;28;20017;-79
2021/04/30 07:04:16;;;;;;;27.43;15.70;;;;;;;;;;5052954;28;20013;-79
2021/04/30 07:06:41;;;;;;;30.10;16.83;;;;;;;;;;5052933;28;20445;-79
2021/04/30 07:09:07;;;;;;;34.80;16.77;;;;;;;;;;5052686;28;20032;-79
2021/04/30 07:11:32;;;;;;;34.07;15.90;;;;;;;;;;5053026;28;20017;-79
2021/04/30 07:13:57;;;;;;;37.07;16.73;;;;;;;;;;5051192;28;20055;-79
2021/04/30 07:16:23;;;;;;;30.67;17.00;;;;;;;;;;5051378;28;20020;-79
2021/04/30 07:18:48;;;;;;;34.73;16.20;;;;;;;;;;5052827;28;20009;-79
2021/04/30 07:21:13;;;;;;;40.83;15.97;;;;;;;;;;5052583;28;20096;-79
2021/04/30 07:23:39;;;;;;;34.90;15.57;;;;;;;;;;5052768;28;20139;-79
2021/04/30 07:26:04;;;;;;;33.80;16.27;;;;;;;;;;5051007;28;20495;-79
2021/04/30 07:28:29;;;;;;;30.53;15.77;;;;;;;;;;5051217;28;20017;-80
2021/04/30 07:30:55;;;;;;;28.10;15.90;;;;;;;;;;5051369;28;20448;-79
2021/04/30 07:33:20;;;;;;;31.10;15.60;;;;;;;;;;5052453;28;20096;-79
2021/04/30 07:35:45;;;;;;;32.30;15.63;;;;;;;;;;5052453;28;20092;-79
2021/04/30 07:38:11;;;;;;;32.47;15.60;;;;;;;;;;5052271;28;20376;-79
2021/04/30 07:40:39;;;;;;;27.30;15.00;;;;;;;;;;5052485;28;20036;-79
2021/04/30 07:43:06;;;;;;;35.13;16.30;;;;;;;;;;5052455;28;20013;-79
2021/04/30 07:45:31;;;;;;;31.77;15.70;;;;;;;;;;5052397;28;20461;-79
2021/04/30 07:47:56;;;;;;;38.60;15.53;;;;;;;;;;5052358;28;20024;-79
2021/04/30 07:50:21;;;;;;;29.73;13.83;;;;;;;;;;5052189;28;20009;-79
2021/04/30 07:52:46;;;;;;;35.63;13.97;;;;;;;;;;5052447;28;20029;-79
2021/04/30 07:55:12;;;;;;;24.40;13.63;;;;;;;;;;5052176;28;20156;-79
2021/04/30 07:57:38;;;;;;;28.97;13.50;;;;;;;;;;5052526;28;20009;-79
2021/04/30 08:00:04;;;;;;;26.27;12.77;;;;;;;;;;5052178;28;20021;-79
2021/04/30 08:02:29;;;;;;;28.87;13.53;;;;;;;;;;5050741;28;20036;-79
2021/04/30 08:04:54;;;;;;;29.33;14.10;;;;;;;;;;5050943;28;20025;-79
2021/04/30 08:07:20;;;;;;;33.03;14.03;;;;;;;;;;5050676;28;20035;-79
2021/04/30 08:09:45;;;;;;;27.30;13.60;;;;;;;;;;5050810;28;20017;-79
2021/04/30 08:12:10;;;;;;;29.97;14.33;;;;;;;;;;5052023;28;20013;-79
2021/04/30 08:14:35;;;;;;;36.70;15.33;;;;;;;;;;5051794;28;20036;-79
2021/04/30 08:17:01;;;;;;;29.20;13.87;;;;;;;;;;5052071;28;20112;-79
2021/04/30 08:19:26;;;;;;;29.37;15.00;;;;;;;;;;5051866;28;20024;-79
2021/04/30 08:21:51;;;;;;;30.73;14.93;;;;;;;;;;5052151;28;20051;-79
2021/04/30 08:24:17;;;;;;;30.07;13.83;;;;;;;;;;5050456;28;20070;-80
2021/04/30 08:26:42;;;;;;;26.43;14.83;;;;;;;;;;5050684;28;20473;-79
2021/04/30 08:29:07;;;;;;;33.50;14.30;;;;;;;;;;5052001;28;20021;-79
2021/04/30 08:31:32;;;;;;;26.13;14.43;;;;;;;;;;5050482;28;20522;-79
2021/04/30 08:33:58;;;;;;;26.93;14.13;;;;;;;;;;5051891;28;20025;-79
2021/04/30 08:36:23;;;;;;;27.27;14.07;;;;;;;;;;5050451;28;20021;-79
2021/04/30 08:38:48;;;;;;;32.77;14.90;;;;;;;;;;5052596;28;20024;-79
2021/04/30 08:41:15;;;;;;;35.87;15.00;;;;;;;;;;5055557;28;20445;-80
2021/04/30 08:43:40;;;;;;;31.67;13.60;;;;;;;;;;5055562;28;20029;-79
2021/04/30 08:46:06;;;;;;;36.37;14.17;;;;;;;;;;5055521;28;20086;-80
2021/04/30 08:48:32;;;;;;;26.53;13.30;;;;;;;;;;5054187;28;20024;-79
2021/04/30 08:50:57;;;;;;;31.20;15.20;;;;;;;;;;5054091;28;20082;-79
2021/04/30 08:53:22;;;;;;;29.57;12.97;;;;;;;;;;5053975;28;20025;-79
2021/04/30 08:55:50;;;;;;;24.53;12.43;;;;;;;;;;5053946;28;20361;-79
2021/04/30 08:58:21;;;;;;;29.73;13.90;;;;;;;;;;5055115;28;20113;-80
2021/04/30 09:00:47;;;;;;;32.80;13.47;;;;;;;;;;5054000;28;20086;-79
2021/04/30 09:03:12;;;;;;;24.37;13.10;;;;;;;;;;5053969;28;20434;-79
2021/04/30 09:05:44;;;;;;;25.53;13.50;;;;;;;;;;5054885;28;20025;-79
2021/04/30 09:08:09;;;;;;;29.00;13.50;;;;;;;;;;5055165;28;20017;-79
2021/04/30 09:10:41;;;;;;;27.27;14.13;;;;;;;;;;5054993;28;20521;-79
2021/04/30 09:13:06;;;;;;;23.20;12.07;;;;;;;;;;5054955;28;20040;-79
2021/04/30 09:15:32;;;;;;;27.70;13.70;;;;;;;;;;5055265;28;20051;-79
2021/04/30 09:18:15;;;;;;;26.87;14.13;;;;;;;;;;5054767;28;20009;-79
2021/04/30 09:20:41;;;;;;;30.63;13.70;;;;;;;;;;5054803;28;20016;-79
2021/04/30 09:23:25;;;;;;;30.77;14.27;;;;;;;;;;5053375;28;20419;-79
2021/04/30 09:25:50;;;;;;;34.87;16.47;;;;;;;;;;5053443;28;20029;-79
2021/04/30 09:28:15;;;;;;;36.00;16.13;;;;;;;;;;5053348;28;20028;-79
2021/04/30 09:30:40;;;;;;;33.90;13.97;;;;;;;;;;5054694;28;20503;-79
2021/04/30 09:33:07;;;;;;;25.77;14.30;;;;;;;;;;5053213;28;20116;-79
2021/04/30 09:35:36;;;;;;;37.83;15.52;;;;;;;;;;5053275;28;20052;-79
2021/04/30 09:38:20;;;;;;;26.43;13.90;;;;;;;;;;5053066;28;20021;-79
2021/04/30 09:40:47;;;;;;;27.05;13.43;;;;;;;;;;5053607;28;20441;-79
2021/04/30 09:43:12;;;;;;;28.83;15.95;;;;;;;;;;5053177;28;20111;-79
2021/04/30 09:45:38;;;;;;;31.57;14.60;;;;;;;;;;5053156;28;20059;-79
2021/04/30 09:48:04;;;;;;;23.27;12.07;;;;;;;;;;5053089;28;20429;-80
2021/04/30 09:50:29;;;;;;;32.23;16.20;;;;;;;;;;5039948;28;20021;-80
2021/04/30 09:53:02;;;;;;;36.10;18.13;;;;;;;;;;5054258;28;20091;-80
2021/04/30 09:55:41;;;;;;;27.83;16.60;;;;;;;;;;5052609;28;20464;-80
2021/04/30 09:58:22;;;;;;;27.33;15.60;;;;;;;;;;5052815;28;20401;-80
2021/04/30 10:00:52;;;;;;;29.17;15.63;;;;;;;;;;5041072;28;20492;-79
2021/04/30 10:03:17;;;;;;;33.17;17.13;;;;;;;;;;5052782;28;20013;-79
2021/04/30 10:06:01;;;;;;;27.60;17.33;;;;;;;;;;5052578;28;20051;-79
2021/04/30 10:08:26;;;;;;;20.23;12.30;;;;;;;;;;5052590;28;20033;-80
2021/04/30 10:10:51;;;;;;;28.30;16.08;;;;;;;;;;5053822;28;20027;-80
2021/04/30 10:13:16;;;;;;;23.45;15.60;;;;;;;;;;5053767;28;20039;-80
2021/04/30 10:15:42;;;;;;;33.30;15.63;;;;;;;;;;5053688;28;20021;-80
2021/04/30 10:18:07;;;;;;;43.17;18.25;;;;;;;;;;5053674;28;20425;-79
2021/04/30 10:20:32;;;;;;;28.90;15.77;;;;;;;;;;5053824;28;20453;-80
2021/04/30 10:22:59;;;;;;;20.00;12.57;;;;;;;;;;5053545;28;20020;-80
2021/04/30 10:25:26;;;;;;;30.85;15.98;;;;;;;;;;5052379;28;20051;-80
2021/04/30 10:27:53;;;;;;;29.05;16.58;;;;;;;;;;5053515;28;20013;-80
2021/04/30 10:30:18;;;;;;;28.42;16.30;;;;;;;;;;5053579;28;20388;-80
2021/04/30 10:33:02;;;;;;;34.28;18.35;;;;;;;;;;5052269;28;20028;-80
2021/04/30 10:35:46;;;;;;;44.20;17.08;;;;;;;;;;5040377;28;20040;-80
2021/04/30 10:38:19;;;;;;;26.50;16.00;;;;;;;;;;5053291;28;20017;-80
2021/04/30 10:41:04;;;;;;;30.20;17.58;;;;;;;;;;5052073;28;20040;-80
2021/04/30 10:43:30;;;;;;;33.50;17.10;;;;;;;;;;5053288;28;20291;-79
2021/04/30 10:46:04;;;;;;;30.30;17.67;;;;;;;;;;5053359;28;20417;-80
2021/04/30 10:48:31;;;;;;;30.33;15.38;;;;;;;;;;5053127;28;20017;-80
2021/04/30 10:51:09;;;;;;;39.75;19.63;;;;;;;;;;5053333;28;20027;-80
2021/04/30 10:53:34;;;;;;;31.55;19.00;;;;;;;;;;5053067;28;20428;-79
2021/04/30 10:56:20;;;;;;;39.35;19.65;;;;;;;;;;5053046;28;20021;-80
2021/04/30 10:58:45;;;;;;;33.85;19.80;;;;;;;;;;5052822;28;20088;-80
2021/04/30 11:01:42;;;;;;;34.25;19.88;;;;;;;;;;5051098;28;20036;-80
2021/04/30 11:04:11;;;;;;;32.13;19.42;;;;;;;;;;5051283;28;20036;-80
2021/04/30 11:06:37;;;;;;;36.40;19.52;;;;;;;;;;5053030;28;20025;-80
2021/04/30 11:09:10;;;;;;;35.05;19.48;;;;;;;;;;5052747;28;20390;-80
2021/04/30 11:11:36;;;;;;;32.13;19.10;;;;;;;;;;5053226;28;20024;-80
2021/04/30 11:14:20;;;;;;;31.95;18.38;;;;;;;;;;5052462;28;20056;-80
2021/04/30 11:16:45;;;;;;;34.25;19.08;;;;;;;;;;5052974;28;20033;-80
2021/04/30 11:19:11;;;;;;;32.72;20.13;;;;;;;;;;5052911;28;20068;-80
2021/04/30 11:21:45;;;;;;;39.75;20.70;;;;;;;;;;5051475;28;20025;-80
2021/04/30 11:24:28;;;;;;;36.88;19.15;;;;;;;;;;5052810;28;20388;-80
2021/04/30 11:27:09;;;;;;;30.80;18.48;;;;;;;;;;5040687;28;20017;-80
2021/04/30 11:29:34;;;;;;;31.70;18.27;;;;;;;;;;5052490;28;20017;-80
2021/04/30 11:32:18;;;;;;;26.90;15.13;;;;;;;;;;5053060;28;20028;-80
2021/04/30 11:35:12;;;;;;;27.40;18.60;;;;;;;;;;5052264;28;20025;-80
2021/04/30 11:37:38;;;;;;;27.25;17.10;;;;;;;;;;5052240;28;20037;-80
2021/04/30 11:40:04;;;;;;;26.27;17.05;;;;;;;;;;5051167;28;20108;-80
2021/04/30 11:42:30;;;;;;;36.78;17.98;;;;;;;;;;5052667;28;20053;-80
2021/04/30 11:44:55;;;;;;;37.55;17.40;;;;;;;;;;5051061;28;20044;-80
2021/04/30 11:47:30;;;;;;;24.70;15.25;;;;;;;;;;5052671;28;20017;-80
2021/04/30 11:49:56;;;;;;;26.52;16.58;;;;;;;;;;5052368;28;20029;-80
2021/04/30 11:52:37;;;;;;;28.02;16.73;;;;;;;;;;5051165;28;20329;-80
2021/04/30 11:55:04;;;;;;;27.15;16.55;;;;;;;;;;5050955;28;20104;-80
2021/04/30 11:57:29;;;;;;;28.50;16.20;;;;;;;;;;5052277;28;20384;-80
2021/04/30 11:59:56;;;;;;;32.88;15.88;;;;;;;;;;5051144;28;20022;-80
2021/04/30 12:02:24;;;;;;;28.58;16.15;;;;;;;;;;5052181;28;20043;-80
2021/04/30 12:04:51;;;;;;;28.50;16.00;;;;;;;;;;5052369;28;20028;-80
2021/04/30 12:07:17;;;;;;;22.23;12.73;;;;;;;;;;5050967;28;20025;-80
2021/04/30 12:09:42;;;;;;;20.35;13.05;;;;;;;;;;5052479;28;20028;-80
2021/04/30 12:12:11;;;;;;;24.17;12.77;;;;;;;;;;5052123;28;20104;-80
2021/04/30 12:14:55;;;;;;;24.90;14.85;;;;;;;;;;5054563;28;20496;-80
2021/04/30 12:17:21;;;;;;;24.15;15.40;;;;;;;;;;5054822;28;20025;-80
2021/04/30 12:20:01;;;;;;;33.08;15.70;;;;;;;;;;5056003;28;20017;-80
2021/04/30 12:22:27;;;;;;;29.55;16.00;;;;;;;;;;5056009;28;20048;-80
2021/04/30 12:24:52;;;;;;;25.27;16.45;;;;;;;;;;5054415;28;20063;-80
2021/04/30 12:27:27;;;;;;;26.55;16.13;;;;;;;;;;5055967;28;20033;-80
2021/04/30 12:29:53;;;;;;;31.65;16.73;;;;;;;;;;5055684;28;20376;-80
2021/04/30 12:32:22;;;;;;;24.63;15.88;;;;;;;;;;5055901;28;20024;-79
2021/04/30 12:34:48;;;;;;;26.50;15.68;;;;;;;;;;5055574;28;20107;-80
2021/04/30 12:37:13;;;;;;;25.80;15.65;;;;;;;;;;5055817;28;20417;-80
2021/04/30 12:39:40;;;;;;;31.50;16.67;;;;;;;;;;5055589;28;20040;-80
2021/04/30 12:42:06;;;;;;;26.23;16.55;;;;;;;;;;5054386;28;20021;-80
2021/04/30 12:44:31;;;;;;;28.00;16.80;;;;;;;;;;5042756;28;20377;-80
2021/04/30 12:46:56;;;;;;;30.08;18.45;;;;;;;;;;5054360;28;20024;-80
2021/04/30 12:49:21;;;;;;;31.05;18.63;;;;;;;;;;5055832;28;20029;-80
2021/04/30 12:51:51;;;;;;;37.22;17.75;;;;;;;;;;5055443;28;20071;-80
2021/04/30 12:54:16;;;;;;;26.92;18.50;;;;;;;;;;5054303;28;20035;-80
2021/04/30 12:56:47;;;;;;;32.70;19.40;;;;;;;;;;5053952;28;20017;-80
2021/04/30 12:59:12;;;;;;;34.40;19.10;;;;;;;;;;5055480;28;20108;-80
2021/04/30 13:01:39;;;;;;;31.40;19.10;;;;;;;;;;5055319;28;20044;-80
2021/04/30 13:04:04;;;;;;;30.20;19.48;;;;;;;;;;5055141;28;20071;-80
2021/04/30 13:06:35;;;;;;;31.25;18.23;;;;;;;;;;5055202;28;20095;-80
2021/04/30 13:09:00;;;;;;;34.85;18.88;;;;;;;;;;5055101;28;20009;-80
2021/04/30 13:11:27;;;;;;;29.00;16.48;;;;;;;;;;5043414;28;20021;-80
2021/04/30 13:14:05;;;;;;;28.63;17.83;;;;;;;;;;5050049;28;20025;-80
2021/04/30 13:16:44;;;;;;;25.02;18.50;;;;;;;;;;5055009;28;20044;-80
2021/04/30 13:19:10;;;;;;;26.33;16.90;;;;;;;;;;5053538;28;20171;-80
2021/04/30 13:21:37;;;;;;;25.67;16.17;;;;;;;;;;5055213;28;20360;-80
2021/04/30 13:24:08;;;;;;;27.17;16.33;;;;;;;;;;5054373;28;20143;-80
2021/04/30 13:26:34;;;;;;;32.08;16.95;;;;;;;;;;5054591;28;20020;-81
2021/04/30 13:29:08;;;;;;;26.42;17.20;;;;;;;;;;5054800;28;20032;-80
2021/04/30 13:31:33;;;;;;;30.50;17.05;;;;;;;;;;5052944;28;20377;-80
2021/04/30 13:34:09;;;;;;;20.88;13.52;;;;;;;;;;5053259;28;20032;-80
2021/04/30 13:36:49;;;;;;;26.08;16.60;;;;;;;;;;5054539;28;20032;-80
2021/04/30 13:39:15;;;;;;;28.98;17.90;;;;;;;;;;5053344;28;20324;-80
2021/04/30 13:41:40;;;;;;;28.27;18.70;;;;;;;;;;5054407;28;20013;-80
2021/04/30 13:44:15;;;;;;;28.77;17.55;;;;;;;;;;5054474;28;20100;-80
2021/04/30 13:46:47;;;;;;;27.17;17.23;;;;;;;;;;5052897;28;20027;-80
2021/04/30 13:49:12;;;;;;;27.88;17.25;;;;;;;;;;5054540;28;20031;-80
2021/04/30 13:51:37;;;;;;;26.10;16.23;;;;;;;;;;5054232;28;20104;-80
2021/04/30 13:54:03;;;;;;;26.90;15.88;;;;;;;;;;5054278;28;20020;-80
2021/04/30 13:56:28;;;;;;;27.00;16.73;;;;;;;;;;5054387;28;20075;-80
2021/04/30 13:58:53;;;;;;;24.20;16.15;;;;;;;;;;5052772;28;20413;-80
2021/04/30 14:01:19;;;;;;;26.30;14.57;;;;;;;;;;5054196;28;20013;-80
2021/04/30 14:03:44;;;;;;;24.42;16.38;;;;;;;;;;5052550;28;20013;-80
2021/04/30 14:06:09;;;;;;;25.35;15.35;;;;;;;;;;5054167;28;20025;-80
2021/04/30 14:08:34;;;;;;;27.45;15.77;;;;;;;;;;5053834;28;20552;-80
2021/04/30 14:10:59;;;;;;;24.05;16.00;;;;;;;;;;5053954;28;20125;-80
2021/04/30 14:13:24;;;;;;;29.33;16.15;;;;;;;;;;5052513;28;20032;-80
2021/04/30 14:15:50;;;;;;;27.10;15.93;;;;;;;;;;5053824;28;20029;-81
2021/04/30 14:18:15;;;;;;;21.77;14.43;;;;;;;;;;5053967;28;20043;-80
2021/04/30 14:20:42;;;;;;;23.98;14.00;;;;;;;;;;5053785;28;20092;-80